Time;durP1;ratioP1;P1;durP2;ratioP2;P2;SDS_P1;SDS_P2;PMS_P1;PMS_P2;Temp;Humidity;BMP_temperature;BMP_pressure;BME280_temperature;BME280_humidity;BME280_pressure;Samples;Min_cycle;Max_cycle;Signal;HPM_P1;HPM_P2
2023/10/12 00:00:36;;;;;;;12.60;3.73;;;;;;;;;;5015728;28;20181;-77
2023/10/12 00:03:40;;;;;;;12.27;3.50;;;;;;;;;;5004933;28;20191;-77
2023/10/12 00:06:46;;;;;;;8.30;3.70;;;;;;;;;;4993310;28;20571;-77
2023/10/12 00:10:01;;;;;;;9.33;3.70;;;;;;;;;;5016755;28;20181;-77
2023/10/12 00:13:05;;;;;;;8.70;3.23;;;;;;;;;;5016601;28;20229;-77
2023/10/12 00:16:09;;;;;;;10.23;3.97;;;;;;;;;;5015804;28;20186;-77
2023/10/12 00:19:14;;;;;;;10.20;3.37;;;;;;;;;;5004660;28;20185;-78
2023/10/12 00:22:19;;;;;;;7.03;3.27;;;;;;;;;;5016363;28;20232;-77
2023/10/12 00:25:23;;;;;;;5.53;3.07;;;;;;;;;;5017051;28;20189;-77
2023/10/12 00:28:37;;;;;;;8.27;3.53;;;;;;;;;;5015477;28;20629;-77
2023/10/12 00:31:43;;;;;;;13.53;3.50;;;;;;;;;;5015287;28;20218;-77
2023/10/12 00:34:48;;;;;;;10.97;3.23;;;;;;;;;;5015502;28;20659;-78
2023/10/12 00:37:54;;;;;;;6.57;3.20;;;;;;;;;;5004005;28;20186;-77
2023/10/12 00:41:07;;;;;;;7.83;3.33;;;;;;;;;;5015210;28;20193;-77
2023/10/12 00:44:12;;;;;;;10.57;3.60;;;;;;;;;;5015419;28;20182;-77
2023/10/12 00:47:29;;;;;;;9.93;3.60;;;;;;;;;;5015067;28;20549;-77
2023/10/12 00:50:36;;;;;;;10.13;3.73;;;;;;;;;;5003495;28;20186;-77
2023/10/12 00:53:46;;;;;;;9.33;3.20;;;;;;;;;;5003482;28;20721;-77
2023/10/12 00:56:56;;;;;;;6.10;3.30;;;;;;;;;;5014174;28;20181;-77
2023/10/12 01:00:15;;;;;;;5.77;3.30;;;;;;;;;;5015512;28;20185;-78
2023/10/12 01:03:35;;;;;;;6.00;3.50;;;;;;;;;;5003537;28;20182;-77
2023/10/12 01:06:40;;;;;;;13.50;3.33;;;;;;;;;;5015378;28;20178;-77
2023/10/12 01:09:45;;;;;;;7.97;3.47;;;;;;;;;;5015664;28;20189;-77
2023/10/12 01:12:50;;;;;;;9.83;4.20;;;;;;;;;;5014455;28;20229;-78
2023/10/12 01:15:56;;;;;;;8.50;3.30;;;;;;;;;;5014115;28;20181;-78
2023/10/12 01:19:05;;;;;;;9.47;3.37;;;;;;;;;;5003072;28;20185;-78
2023/10/12 01:22:12;;;;;;;7.63;3.57;;;;;;;;;;5002748;28;20696;-77
2023/10/12 01:25:20;;;;;;;6.47;3.13;;;;;;;;;;5002988;28;20209;-77
2023/10/12 01:28:25;;;;;;;12.07;3.53;;;;;;;;;;5014724;28;20186;-77
2023/10/12 01:31:30;;;;;;;6.30;3.27;;;;;;;;;;5015255;28;20593;-77
2023/10/12 01:34:38;;;;;;;5.73;3.33;;;;;;;;;;5003065;28;20213;-77
2023/10/12 01:37:47;;;;;;;8.53;3.30;;;;;;;;;;5003309;28;20197;-77
2023/10/12 01:40:55;;;;;;;9.00;3.70;;;;;;;;;;5014405;28;20186;-77
2023/10/12 01:44:00;;;;;;;11.13;3.40;;;;;;;;;;5014546;28;20181;-78
2023/10/12 01:47:04;;;;;;;8.90;3.53;;;;;;;;;;5002977;28;20196;-77
2023/10/12 01:50:09;;;;;;;12.73;3.67;;;;;;;;;;5014262;28;20181;-77
2023/10/12 01:56:29;;;;;;;8.83;3.17;;;;;;;;;;5014111;28;20537;-77
2023/10/12 01:59:34;;;;;;;7.40;3.50;;;;;;;;;;5014003;28;20186;-77
2023/10/12 02:02:40;;;;;;;10.30;3.40;;;;;;;;;;5002587;28;20220;-77
2023/10/12 02:05:58;;;;;;;7.97;3.40;;;;;;;;;;5014373;28;20209;-77
2023/10/12 02:09:08;;;;;;;9.67;3.37;;;;;;;;;;5013125;28;20181;-77
2023/10/12 02:12:13;;;;;;;9.80;3.87;;;;;;;;;;5014438;28;20217;-77
2023/10/12 02:15:18;;;;;;;5.67;3.23;;;;;;;;;;5014576;28;20174;-77
2023/10/12 02:18:22;;;;;;;10.17;3.37;;;;;;;;;;5013446;28;20641;-77
2023/10/12 02:21:26;;;;;;;8.00;3.93;;;;;;;;;;4990817;28;20234;-77
2023/10/12 02:24:30;;;;;;;9.17;3.33;;;;;;;;;;5013013;28;20546;-76
2023/10/12 02:27:38;;;;;;;9.10;4.70;;;;;;;;;;5013684;28;20625;-76
2023/10/12 02:30:50;;;;;;;7.20;3.30;;;;;;;;;;5002059;28;20181;-76
2023/10/12 02:33:55;;;;;;;13.50;4.40;;;;;;;;;;5014077;28;20209;-76
2023/10/12 02:37:00;;;;;;;5.53;3.47;;;;;;;;;;5013813;28;20190;-76
2023/10/12 02:40:12;;;;;;;10.43;3.20;;;;;;;;;;5013487;28;20193;-76
2023/10/12 02:43:16;;;;;;;5.93;3.40;;;;;;;;;;5002292;28;20187;-76
2023/10/12 02:46:25;;;;;;;10.73;3.70;;;;;;;;;;5012965;28;20193;-77
2023/10/12 02:49:33;;;;;;;6.77;3.60;;;;;;;;;;5013876;28;20657;-77
2023/10/12 02:52:39;;;;;;;5.57;3.83;;;;;;;;;;5013869;28;20213;-76
2023/10/12 02:55:48;;;;;;;12.80;3.83;;;;;;;;;;5013368;28;20177;-77
2023/10/12 02:58:59;;;;;;;7.53;3.93;;;;;;;;;;5012771;28;20199;-77
2023/10/12 03:05:46;;;;;;;6.40;3.80;;;;;;;;;;5001549;28;20182;-77
2023/10/12 03:12:06;;;;;;;6.40;3.10;;;;;;;;;;5001447;28;20713;-76
2023/10/12 03:15:14;;;;;;;12.97;3.60;;;;;;;;;;5013137;28;20213;-77
2023/10/12 03:18:22;;;;;;;10.07;4.07;;;;;;;;;;5012485;28;20189;-77
2023/10/12 03:21:27;;;;;;;10.50;3.67;;;;;;;;;;4993673;28;20228;-77
2023/10/12 03:24:43;;;;;;;8.63;3.53;;;;;;;;;;5016004;28;20212;-77
2023/10/12 03:27:52;;;;;;;12.43;4.10;;;;;;;;;;5004837;28;20630;-77
2023/10/12 03:31:15;;;;;;;8.77;3.93;;;;;;;;;;5016286;28;20202;-78
2023/10/12 03:37:45;;;;;;;11.23;4.23;;;;;;;;;;5004869;28;20186;-77
2023/10/12 03:47:55;;;;;;;9.17;4.10;;;;;;;;;;5016610;28;20661;-77
2023/10/12 03:51:11;;;;;;;9.77;4.40;;;;;;;;;;5016605;28;20182;-76
2023/10/12 03:54:26;;;;;;;7.30;4.07;;;;;;;;;;5016553;28;20213;-77
2023/10/12 04:00:47;;;;;;;10.23;3.57;;;;;;;;;;5015725;28;20182;-76
2023/10/12 04:03:58;;;;;;;10.87;4.33;;;;;;;;;;5016320;28;20296;-77
2023/10/12 04:10:14;;;;;;;14.70;3.97;;;;;;;;;;5004012;28;20670;-77
2023/10/12 04:16:40;;;;;;;5.40;3.63;;;;;;;;;;5015017;28;20526;-76
2023/10/12 04:20:00;;;;;;;10.63;3.57;;;;;;;;;;5015757;28;20185;-76
2023/10/12 04:23:34;;;;;;;8.00;4.00;;;;;;;;;;5014624;28;20220;-77
2023/10/12 04:26:38;;;;;;;8.97;3.77;;;;;;;;;;5015663;28;20522;-77
2023/10/12 04:29:42;;;;;;;8.37;3.53;;;;;;;;;;5003405;28;20189;-77
2023/10/12 04:36:23;;;;;;;12.77;3.50;;;;;;;;;;5014698;28;20642;-76
2023/10/12 04:39:27;;;;;;;8.30;3.60;;;;;;;;;;5014415;28;20199;-77
2023/10/12 04:42:34;;;;;;;11.13;3.80;;;;;;;;;;5014269;28;20225;-77
2023/10/12 04:52:26;;;;;;;11.63;3.83;;;;;;;;;;5003027;28;20222;-76
2023/10/12 04:55:30;;;;;;;10.50;3.90;;;;;;;;;;5014264;28;20213;-76
2023/10/12 04:58:36;;;;;;;9.67;3.37;;;;;;;;;;5002942;28;20192;-76
2023/10/12 05:02:06;;;;;;;9.40;4.00;;;;;;;;;;4991827;28;20225;-76
2023/10/12 05:05:15;;;;;;;7.37;3.67;;;;;;;;;;5002755;28;20182;-77
2023/10/12 05:08:20;;;;;;;11.03;3.83;;;;;;;;;;5003103;28;20182;-76
2023/10/12 05:11:27;;;;;;;7.77;3.60;;;;;;;;;;5013967;28;20217;-77
2023/10/12 05:14:33;;;;;;;9.17;3.40;;;;;;;;;;5014706;28;20217;-77
2023/10/12 05:17:37;;;;;;;8.27;3.60;;;;;;;;;;5014243;28;20186;-76
2023/10/12 05:20:41;;;;;;;9.50;3.53;;;;;;;;;;5002318;28;20181;-76
2023/10/12 05:23:45;;;;;;;9.57;4.43;;;;;;;;;;5013558;28;20213;-77
2023/10/12 05:26:54;;;;;;;9.13;3.57;;;;;;;;;;5015024;28;20181;-76
2023/10/12 05:30:05;;;;;;;8.77;3.93;;;;;;;;;;5002205;28;20186;-76
2023/10/12 05:33:28;;;;;;;7.23;3.43;;;;;;;;;;5014035;28;20217;-77
2023/10/12 05:36:32;;;;;;;9.07;3.30;;;;;;;;;;5015461;28;20633;-76
2023/10/12 05:39:46;;;;;;;10.43;3.70;;;;;;;;;;5014293;28;20181;-76
2023/10/12 05:42:50;;;;;;;7.47;3.37;;;;;;;;;;5013431;28;20234;-76
2023/10/12 05:45:55;;;;;;;16.90;4.20;;;;;;;;;;5014750;28;20181;-78
2023/10/12 05:49:01;;;;;;;10.87;3.43;;;;;;;;;;5002195;28;20215;-77
2023/10/12 05:52:06;;;;;;;10.10;3.13;;;;;;;;;;5002085;28;20707;-77
2023/10/12 05:55:21;;;;;;;10.67;3.50;;;;;;;;;;5002006;28;20228;-77
2023/10/12 05:58:25;;;;;;;10.37;3.73;;;;;;;;;;5014158;28;20184;-76
2023/10/12 06:01:32;;;;;;;11.23;4.10;;;;;;;;;;5013682;28;20584;-76
2023/10/12 06:04:36;;;;;;;8.80;3.30;;;;;;;;;;5012971;28;20184;-77
2023/10/12 06:07:41;;;;;;;11.30;4.17;;;;;;;;;;5014032;28;20652;-77
2023/10/12 06:10:45;;;;;;;8.30;3.40;;;;;;;;;;5013912;28;20189;-76
2023/10/12 06:13:52;;;;;;;15.20;3.63;;;;;;;;;;5013058;28;20190;-76
2023/10/12 06:16:59;;;;;;;8.77;3.67;;;;;;;;;;5013431;28;20188;-77
2023/10/12 06:20:15;;;;;;;6.87;3.23;;;;;;;;;;5012279;28;20181;-77
2023/10/12 06:23:20;;;;;;;8.10;3.77;;;;;;;;;;5012154;28;20557;-77
2023/10/12 06:26:34;;;;;;;8.33;3.20;;;;;;;;;;5013405;28;20649;-76
2023/10/12 06:29:39;;;;;;;9.07;4.00;;;;;;;;;;5001228;28;20533;-76
2023/10/12 06:32:46;;;;;;;10.83;3.27;;;;;;;;;;5012824;28;20248;-76
2023/10/12 06:35:59;;;;;;;8.57;3.57;;;;;;;;;;5012068;28;20216;-77
2023/10/12 06:42:27;;;;;;;7.77;3.57;;;;;;;;;;5001279;28;20221;-77
2023/10/12 06:45:38;;;;;;;7.23;3.00;;;;;;;;;;5001314;28;20190;-77
2023/10/12 06:48:46;;;;;;;9.20;3.73;;;;;;;;;;5012628;28;20186;-77
2023/10/12 06:52:01;;;;;;;8.30;3.03;;;;;;;;;;5012849;28;20217;-77
2023/10/12 06:55:08;;;;;;;13.73;3.73;;;;;;;;;;5014902;28;20213;-76
2023/10/12 06:58:14;;;;;;;9.90;3.60;;;;;;;;;;5015800;28;20193;-76
2023/10/12 07:01:18;;;;;;;8.47;3.57;;;;;;;;;;5017646;28;20225;-77
2023/10/12 07:04:53;;;;;;;9.37;3.90;;;;;;;;;;5005354;28;20637;-77
2023/10/12 07:07:51;;;;;;;7.07;3.53;;;;;;;;;;5016872;28;20186;-77
2023/10/12 07:11:03;;;;;;;8.80;3.50;;;;;;;;;;5016078;28;20190;-77
2023/10/12 07:14:08;;;;;;;7.43;3.20;;;;;;;;;;5016617;28;20182;-77
2023/10/12 07:17:13;;;;;;;10.07;3.17;;;;;;;;;;5016830;28;20186;-77
2023/10/12 07:20:53;;;;;;;9.07;3.33;;;;;;;;;;5004601;28;20189;-77
2023/10/12 07:23:53;;;;;;;8.87;3.50;;;;;;;;;;5016797;28;20213;-78
2023/10/12 07:27:11;;;;;;;6.27;3.47;;;;;;;;;;5004651;28;20182;-78
2023/10/12 07:30:30;;;;;;;10.00;3.27;;;;;;;;;;5016445;28;20181;-78
2023/10/12 07:33:34;;;;;;;6.77;3.70;;;;;;;;;;5015761;28;20186;-77
2023/10/12 07:39:46;;;;;;;13.57;3.33;;;;;;;;;;5016012;28;20189;-77
2023/10/12 07:42:50;;;;;;;7.63;3.07;;;;;;;;;;5004294;28;20224;-77
2023/10/12 07:46:24;;;;;;;7.23;3.13;;;;;;;;;;5016224;28;20181;-77
2023/10/12 07:52:46;;;;;;;6.77;3.23;;;;;;;;;;5005003;28;20217;-77
2023/10/12 07:56:00;;;;;;;7.67;3.40;;;;;;;;;;5016261;28;20214;-77
2023/10/12 07:59:13;;;;;;;9.23;2.93;;;;;;;;;;5019184;28;20190;-77
2023/10/12 08:02:31;;;;;;;8.87;3.40;;;;;;;;;;5018660;28;20221;-77
2023/10/12 08:08:45;;;;;;;15.13;4.07;;;;;;;;;;5017688;28;20190;-76
2023/10/12 08:11:49;;;;;;;11.27;3.23;;;;;;;;;;5017801;28;20225;-76
2023/10/12 08:15:09;;;;;;;8.50;3.57;;;;;;;;;;5017644;28;20181;-76
2023/10/12 08:18:51;;;;;;;10.57;3.77;;;;;;;;;;5018220;28;20637;-76
2023/10/12 08:21:43;;;;;;;6.50;2.77;;;;;;;;;;5019435;28;20228;-76
2023/10/12 08:24:49;;;;;;;9.57;3.40;;;;;;;;;;5018613;28;20213;-77
2023/10/12 08:28:05;;;;;;;5.20;3.10;;;;;;;;;;5019040;28;20182;-77
2023/10/12 08:31:20;;;;;;;14.23;3.50;;;;;;;;;;5018427;28;20214;-77
2023/10/12 08:38:09;;;;;;;9.67;3.10;;;;;;;;;;5020274;28;20629;-77
2023/10/12 08:44:21;;;;;;;8.60;3.00;;;;;;;;;;5019846;28;20186;-77
2023/10/12 08:47:31;;;;;;;6.70;3.00;;;;;;;;;;5018828;28;20182;-77
2023/10/12 08:50:49;;;;;;;10.30;3.30;;;;;;;;;;4996679;28;20187;-76
2023/10/12 08:53:53;;;;;;;7.50;2.97;;;;;;;;;;5019402;28;20570;-77
2023/10/12 08:56:58;;;;;;;7.53;3.37;;;;;;;;;;5020318;28;20218;-77
2023/10/12 09:07:05;;;;;;;8.53;3.13;;;;;;;;;;5012855;28;20206;-77
2023/10/12 09:10:36;;;;;;;8.30;3.50;;;;;;;;;;5017899;28;20189;-78
2023/10/12 09:13:36;;;;;;;7.60;3.40;;;;;;;;;;5017880;28;20182;-76
2023/10/12 09:16:43;;;;;;;12.07;3.10;;;;;;;;;;5005527;28;20214;-78
2023/10/12 09:19:47;;;;;;;6.13;3.10;;;;;;;;;;5006121;28;20193;-76
2023/10/12 09:22:58;;;;;;;11.17;3.53;;;;;;;;;;5017814;28;20219;-77
2023/10/12 09:29:42;;;;;;;7.37;3.30;;;;;;;;;;5016796;28;20182;-77
2023/10/12 09:32:56;;;;;;;13.93;3.33;;;;;;;;;;5016137;28;20219;-77
2023/10/12 09:36:02;;;;;;;9.00;3.40;;;;;;;;;;5015027;28;20232;-78
2023/10/12 09:39:13;;;;;;;11.87;3.20;;;;;;;;;;5016191;28;20211;-78
2023/10/12 09:42:30;;;;;;;11.30;3.20;;;;;;;;;;5015320;28;20227;-77
2023/10/12 09:45:41;;;;;;;6.77;3.17;;;;;;;;;;4992983;28;20189;-77
2023/10/12 09:48:46;;;;;;;6.53;3.23;;;;;;;;;;5016167;28;20628;-77
2023/10/12 09:51:57;;;;;;;8.20;3.40;;;;;;;;;;5017873;28;20227;-77
2023/10/12 09:55:14;;;;;;;11.53;3.70;;;;;;;;;;5003836;28;20523;-77
2023/10/12 09:58:27;;;;;;;7.07;3.42;;;;;;;;;;5002479;28;20187;-77
2023/10/12 10:04:42;;;;;;;5.43;3.25;;;;;;;;;;5015101;28;20571;-77
2023/10/12 10:08:02;;;;;;;13.15;3.85;;;;;;;;;;5002799;28;20601;-77
2023/10/12 10:11:11;;;;;;;6.43;2.95;;;;;;;;;;5013373;28;20555;-77
2023/10/12 10:14:20;;;;;;;6.28;3.22;;;;;;;;;;5014064;28;20189;-77
2023/10/12 10:17:30;;;;;;;7.00;2.75;;;;;;;;;;5014403;28;20218;-77
2023/10/12 10:20:47;;;;;;;7.95;3.00;;;;;;;;;;5002324;28;20186;-78
2023/10/12 10:23:53;;;;;;;10.55;3.15;;;;;;;;;;5012963;28;20202;-77
2023/10/12 10:27:13;;;;;;;9.38;3.05;;;;;;;;;;5014405;28;20186;-77
2023/10/12 10:30:25;;;;;;;9.32;3.08;;;;;;;;;;5013023;28;20188;-77
2023/10/12 10:33:36;;;;;;;9.23;3.35;;;;;;;;;;5014485;28;20630;-77
2023/10/12 10:36:44;;;;;;;5.55;2.88;;;;;;;;;;5002560;28;20209;-77
2023/10/12 10:39:49;;;;;;;6.18;3.15;;;;;;;;;;5013977;28;20192;-76
2023/10/12 10:43:05;;;;;;;6.45;3.10;;;;;;;;;;5001776;28;20221;-77
2023/10/12 10:46:10;;;;;;;10.75;4.00;;;;;;;;;;5013992;28;20182;-77
2023/10/12 10:49:15;;;;;;;9.15;3.40;;;;;;;;;;5013738;28;20196;-77
2023/10/12 10:52:26;;;;;;;10.68;3.60;;;;;;;;;;5001366;28;20532;-77
2023/10/12 10:55:31;;;;;;;8.75;3.70;;;;;;;;;;5013262;28;20188;-77
2023/10/12 10:58:37;;;;;;;11.98;4.00;;;;;;;;;;5014322;28;20193;-76
2023/10/12 11:01:48;;;;;;;7.22;3.58;;;;;;;;;;5015385;28;20338;-78
2023/10/12 11:04:55;;;;;;;8.20;3.17;;;;;;;;;;5015536;28;20184;-78
2023/10/12 11:08:19;;;;;;;8.95;3.20;;;;;;;;;;5002943;28;20183;-77
2023/10/12 11:11:26;;;;;;;8.77;3.50;;;;;;;;;;5014644;28;20559;-78
2023/10/12 11:14:31;;;;;;;10.38;3.53;;;;;;;;;;5015294;28;20638;-77
2023/10/12 11:17:41;;;;;;;6.60;3.42;;;;;;;;;;5003326;28;20228;-78
2023/10/12 11:20:49;;;;;;;6.60;3.30;;;;;;;;;;5014866;28;20188;-78
2023/10/12 11:24:01;;;;;;;9.23;3.75;;;;;;;;;;5014411;28;20207;-77
2023/10/12 11:27:07;;;;;;;10.43;4.03;;;;;;;;;;5015560;28;20180;-77
2023/10/12 11:30:19;;;;;;;10.57;3.47;;;;;;;;;;5015004;28;20643;-77
2023/10/12 11:33:24;;;;;;;11.20;3.85;;;;;;;;;;5014655;28;20181;-78
2023/10/12 11:36:28;;;;;;;9.55;3.20;;;;;;;;;;5014411;28;20296;-78
2023/10/12 11:39:45;;;;;;;6.72;3.72;;;;;;;;;;5013354;28;20182;-78
2023/10/12 11:42:53;;;;;;;10.70;3.38;;;;;;;;;;5017800;28;20717;-77
2023/10/12 11:46:01;;;;;;;7.22;3.90;;;;;;;;;;5005588;28;20194;-77
2023/10/12 11:49:10;;;;;;;8.40;4.10;;;;;;;;;;5018281;28;20196;-78
2023/10/12 11:52:17;;;;;;;6.03;3.67;;;;;;;;;;5017787;28;20221;-77
2023/10/12 11:55:27;;;;;;;10.90;3.20;;;;;;;;;;5017306;28;20182;-77
2023/10/12 11:58:32;;;;;;;12.50;3.30;;;;;;;;;;5006195;28;20191;-77
2023/10/12 12:01:40;;;;;;;6.72;3.38;;;;;;;;;;4994483;28;20234;-77
2023/10/12 12:04:44;;;;;;;10.73;3.78;;;;;;;;;;5016802;28;20190;-77
2023/10/12 12:07:53;;;;;;;8.93;3.50;;;;;;;;;;5016859;28;20192;-77
2023/10/12 12:11:03;;;;;;;9.60;3.50;;;;;;;;;;5015846;28;20496;-78
2023/10/12 12:14:07;;;;;;;8.70;3.40;;;;;;;;;;5017194;28;20495;-77
2023/10/12 12:17:11;;;;;;;9.65;3.45;;;;;;;;;;5017156;28;20229;-77
2023/10/12 12:20:20;;;;;;;10.48;3.28;;;;;;;;;;4994385;28;20190;-77
2023/10/12 12:23:29;;;;;;;10.43;3.70;;;;;;;;;;5016985;28;20204;-77
2023/10/12 12:26:33;;;;;;;10.40;3.65;;;;;;;;;;5016889;28;20546;-77
2023/10/12 12:29:38;;;;;;;7.07;3.45;;;;;;;;;;5016699;28;20186;-77
2023/10/12 12:32:42;;;;;;;11.00;4.20;;;;;;;;;;5016622;28;20558;-77
2023/10/12 12:35:47;;;;;;;15.27;3.28;;;;;;;;;;5015639;28;20659;-76
2023/10/12 12:38:57;;;;;;;8.18;3.47;;;;;;;;;;5016701;28;20193;-77
2023/10/12 12:42:02;;;;;;;10.73;3.08;;;;;;;;;;5016039;28;20216;-77
2023/10/12 12:45:08;;;;;;;6.35;3.55;;;;;;;;;;5015361;28;20200;-77
2023/10/12 12:48:12;;;;;;;10.65;3.33;;;;;;;;;;5015614;28;20190;-77
2023/10/12 12:51:18;;;;;;;13.32;3.85;;;;;;;;;;5015480;28;20224;-77
2023/10/12 12:54:23;;;;;;;12.47;3.73;;;;;;;;;;5015939;28;20543;-76
2023/10/12 12:57:27;;;;;;;11.32;3.60;;;;;;;;;;5015668;28;20576;-76
2023/10/12 13:00:33;;;;;;;9.83;3.77;;;;;;;;;;5015267;28;20196;-77
2023/10/12 13:03:37;;;;;;;10.18;3.33;;;;;;;;;;5014823;28;20189;-77
2023/10/12 13:06:41;;;;;;;12.83;3.97;;;;;;;;;;5015224;28;20192;-77
2023/10/12 13:09:48;;;;;;;8.07;3.55;;;;;;;;;;5014556;28;20654;-77
2023/10/12 13:12:52;;;;;;;7.45;3.90;;;;;;;;;;5015208;28;20222;-77
2023/10/12 13:15:56;;;;;;;10.68;3.67;;;;;;;;;;5014394;28;20191;-77
2023/10/12 13:19:01;;;;;;;4.82;3.35;;;;;;;;;;5015302;28;20195;-76
2023/10/12 13:22:06;;;;;;;9.10;3.43;;;;;;;;;;5014247;28;20221;-77
2023/10/12 13:25:10;;;;;;;7.47;3.33;;;;;;;;;;5014592;28;20220;-76
2023/10/12 13:28:16;;;;;;;7.53;3.27;;;;;;;;;;5014431;28;20182;-76
2023/10/12 13:31:23;;;;;;;12.90;3.87;;;;;;;;;;5013690;28;20557;-76
2023/10/12 13:34:27;;;;;;;8.07;3.47;;;;;;;;;;5014467;28;20190;-77
2023/10/12 13:37:31;;;;;;;14.00;4.17;;;;;;;;;;5013968;28;20218;-76
2023/10/12 13:40:37;;;;;;;11.30;4.00;;;;;;;;;;5013554;28;20200;-77
2023/10/12 13:43:41;;;;;;;13.30;5.13;;;;;;;;;;5013992;28;20195;-76
2023/10/12 13:46:46;;;;;;;7.70;4.80;;;;;;;;;;5014408;28;20605;-76
2023/10/12 13:49:51;;;;;;;10.77;5.43;;;;;;;;;;5014516;28;20187;-76
2023/10/12 13:52:55;;;;;;;10.13;5.40;;;;;;;;;;5013641;28;20223;-77
2023/10/12 13:56:00;;;;;;;8.77;5.50;;;;;;;;;;5014753;28;20197;-76
2023/10/12 13:59:05;;;;;;;8.70;4.50;;;;;;;;;;5014282;28;20179;-76
2023/10/12 14:02:11;;;;;;;6.47;4.03;;;;;;;;;;5014171;28;20221;-77
2023/10/12 14:05:24;;;;;;;6.80;3.80;;;;;;;;;;5014068;28;20182;-76
2023/10/12 14:08:29;;;;;;;7.60;3.80;;;;;;;;;;5002200;28;20183;-77
2023/10/12 14:11:33;;;;;;;12.30;6.47;;;;;;;;;;5014679;28;20224;-77
2023/10/12 14:14:37;;;;;;;17.77;5.83;;;;;;;;;;5014088;28;20203;-77
2023/10/12 14:17:42;;;;;;;12.70;5.00;;;;;;;;;;5014534;28;20268;-77
2023/10/12 14:20:49;;;;;;;15.33;4.73;;;;;;;;;;5013467;28;20196;-77
2023/10/12 14:23:58;;;;;;;8.40;4.37;;;;;;;;;;5014242;28;20220;-77
2023/10/12 14:27:06;;;;;;;9.67;4.23;;;;;;;;;;5013656;28;20181;-77
2023/10/12 14:30:14;;;;;;;6.93;3.97;;;;;;;;;;5013014;28;20188;-77
2023/10/12 14:33:19;;;;;;;11.07;4.10;;;;;;;;;;5002145;28;20187;-77
2023/10/12 14:36:26;;;;;;;9.30;4.03;;;;;;;;;;5002073;28;20564;-77
2023/10/12 14:39:31;;;;;;;10.17;3.93;;;;;;;;;;5014408;28;20174;-77
2023/10/12 14:42:40;;;;;;;9.07;4.17;;;;;;;;;;5013890;28;20214;-77
2023/10/12 14:45:48;;;;;;;13.00;4.60;;;;;;;;;;5014214;28;20185;-77
2023/10/12 14:48:52;;;;;;;9.63;3.80;;;;;;;;;;5014198;28;20622;-77
2023/10/12 14:51:56;;;;;;;9.90;4.33;;;;;;;;;;5013933;28;20221;-77
2023/10/12 14:55:00;;;;;;;7.90;3.93;;;;;;;;;;5013164;28;20191;-77
2023/10/12 14:58:07;;;;;;;13.17;4.00;;;;;;;;;;5014104;28;20210;-77
2023/10/12 15:01:17;;;;;;;9.23;4.27;;;;;;;;;;5013040;28;20228;-76
2023/10/12 15:04:21;;;;;;;11.73;5.60;;;;;;;;;;5001914;28;20188;-77
2023/10/12 15:07:25;;;;;;;19.30;5.23;;;;;;;;;;5014217;28;20184;-77
2023/10/12 15:10:35;;;;;;;13.93;5.23;;;;;;;;;;5015009;28;20542;-77
2023/10/12 15:13:40;;;;;;;16.20;4.53;;;;;;;;;;5013728;28;20545;-77
2023/10/12 15:16:45;;;;;;;13.10;4.60;;;;;;;;;;5016637;28;20190;-77
2023/10/12 15:19:49;;;;;;;18.30;4.97;;;;;;;;;;5018131;28;20194;-76
2023/10/12 15:22:55;;;;;;;22.23;5.57;;;;;;;;;;5016681;28;20693;-76
2023/10/12 15:26:01;;;;;;;10.83;4.23;;;;;;;;;;5017022;28;20190;-76
2023/10/12 15:29:08;;;;;;;9.83;3.80;;;;;;;;;;5017664;28;20644;-76
2023/10/12 15:32:12;;;;;;;13.90;4.03;;;;;;;;;;5016458;28;20221;-76
2023/10/12 15:35:23;;;;;;;14.00;4.53;;;;;;;;;;5005534;28;20662;-76
2023/10/12 15:38:33;;;;;;;15.43;6.00;;;;;;;;;;5018313;28;20712;-77
2023/10/12 15:41:39;;;;;;;10.90;4.70;;;;;;;;;;4997806;28;20232;-77
2023/10/12 15:44:44;;;;;;;13.33;4.57;;;;;;;;;;4995029;28;20695;-77
2023/10/12 15:47:48;;;;;;;6.40;4.40;;;;;;;;;;5015799;28;20744;-76
2023/10/12 15:50:53;;;;;;;8.70;4.60;;;;;;;;;;5003706;28;20182;-75
2023/10/12 15:53:58;;;;;;;13.47;5.00;;;;;;;;;;5004495;28;20190;-77
2023/10/12 15:57:02;;;;;;;14.07;4.93;;;;;;;;;;5004386;28;20193;-76
2023/10/12 16:00:08;;;;;;;10.70;4.43;;;;;;;;;;5015195;28;20194;-76
2023/10/12 16:03:14;;;;;;;9.73;4.50;;;;;;;;;;5016385;28;20699;-76
2023/10/12 16:06:18;;;;;;;18.40;4.77;;;;;;;;;;5004809;28;20194;-76
2023/10/12 16:09:28;;;;;;;14.57;5.00;;;;;;;;;;5016478;28;20184;-76
2023/10/12 16:12:32;;;;;;;10.37;4.53;;;;;;;;;;4996726;28;20563;-76
2023/10/12 16:15:39;;;;;;;9.10;5.13;;;;;;;;;;4998529;28;20224;-76
2023/10/12 16:18:43;;;;;;;10.63;4.37;;;;;;;;;;5003984;28;20213;-76
2023/10/12 16:21:47;;;;;;;19.30;5.33;;;;;;;;;;5016286;28;20232;-76
2023/10/12 16:24:52;;;;;;;11.00;5.20;;;;;;;;;;5016149;28;20701;-76
2023/10/12 16:27:57;;;;;;;12.83;4.83;;;;;;;;;;5015039;28;20189;-76
2023/10/12 16:31:03;;;;;;;8.30;4.73;;;;;;;;;;5015539;28;20216;-77
2023/10/12 16:34:08;;;;;;;10.90;4.83;;;;;;;;;;5014884;28;20193;-76
2023/10/12 16:37:12;;;;;;;10.17;4.90;;;;;;;;;;5014804;28;20189;-75
2023/10/12 16:40:18;;;;;;;12.90;5.37;;;;;;;;;;5003547;28;20192;-75
2023/10/12 16:43:23;;;;;;;9.33;4.70;;;;;;;;;;5003669;28;20186;-75
2023/10/12 16:46:27;;;;;;;9.37;4.77;;;;;;;;;;5003462;28;20177;-75
2023/10/12 16:49:33;;;;;;;12.73;5.30;;;;;;;;;;5015773;28;20186;-75
2023/10/12 16:52:38;;;;;;;12.93;5.20;;;;;;;;;;5015415;28;20585;-75
2023/10/12 16:55:45;;;;;;;11.77;5.60;;;;;;;;;;5015202;28;20192;-75
2023/10/12 16:58:51;;;;;;;13.87;5.10;;;;;;;;;;5014396;28;20220;-75
2023/10/12 17:01:56;;;;;;;9.87;4.37;;;;;;;;;;5003305;28;20224;-76
2023/10/12 17:05:00;;;;;;;13.70;5.27;;;;;;;;;;5014693;28;20186;-76
2023/10/12 17:08:06;;;;;;;10.67;4.33;;;;;;;;;;5003191;28;20195;-76
2023/10/12 17:11:11;;;;;;;13.43;5.73;;;;;;;;;;5003008;28;20230;-76
2023/10/12 17:14:16;;;;;;;8.20;4.67;;;;;;;;;;5014254;28;20669;-77
2023/10/12 17:17:21;;;;;;;10.63;4.60;;;;;;;;;;5014998;28;20186;-75
2023/10/12 17:20:26;;;;;;;12.37;4.93;;;;;;;;;;5014665;28;20200;-75
2023/10/12 17:23:30;;;;;;;9.40;4.53;;;;;;;;;;5014525;28;20212;-77
2023/10/12 17:26:34;;;;;;;13.67;5.50;;;;;;;;;;5013924;28;20190;-75
2023/10/12 17:29:39;;;;;;;16.47;5.97;;;;;;;;;;5014031;28;20181;-76
2023/10/12 17:32:43;;;;;;;9.87;4.80;;;;;;;;;;4983397;28;20217;-75
2023/10/12 17:35:48;;;;;;;10.73;4.90;;;;;;;;;;5002678;28;20197;-75
2023/10/12 17:38:53;;;;;;;7.93;4.33;;;;;;;;;;5002392;28;20220;-75
2023/10/12 17:42:00;;;;;;;10.23;5.20;;;;;;;;;;5002451;28;20225;-76
2023/10/12 17:45:09;;;;;;;9.57;4.73;;;;;;;;;;5013419;28;20198;-75
2023/10/12 17:48:13;;;;;;;12.30;5.70;;;;;;;;;;5013511;28;20181;-75
2023/10/12 17:51:18;;;;;;;10.57;5.50;;;;;;;;;;5013089;28;20227;-75
2023/10/12 17:54:24;;;;;;;8.03;5.27;;;;;;;;;;5013265;28;20189;-75
2023/10/12 17:57:28;;;;;;;9.83;5.57;;;;;;;;;;5014403;28;20185;-75
2023/10/12 18:00:33;;;;;;;9.20;4.73;;;;;;;;;;5014114;28;20178;-76
2023/10/12 18:03:40;;;;;;;9.20;5.20;;;;;;;;;;5002113;28;20185;-76
2023/10/12 18:06:45;;;;;;;11.77;5.17;;;;;;;;;;4993852;28;20186;-76
2023/10/12 18:09:49;;;;;;;11.20;5.10;;;;;;;;;;5013596;28;20655;-76
2023/10/12 18:12:53;;;;;;;10.97;5.13;;;;;;;;;;5014223;28;20232;-76
2023/10/12 18:16:00;;;;;;;8.33;5.67;;;;;;;;;;5001916;28;20185;-77
2023/10/12 18:19:05;;;;;;;13.63;5.20;;;;;;;;;;5001569;28;20213;-77
2023/10/12 18:22:09;;;;;;;14.67;5.20;;;;;;;;;;5013427;28;20220;-77
2023/10/12 18:25:14;;;;;;;14.57;5.67;;;;;;;;;;5013343;28;20602;-76
2023/10/12 18:28:19;;;;;;;14.90;5.53;;;;;;;;;;4990398;28;20185;-77
2023/10/12 18:31:24;;;;;;;17.33;5.23;;;;;;;;;;5001333;28;20232;-77
2023/10/12 18:34:28;;;;;;;14.87;4.90;;;;;;;;;;5001573;28;20188;-77
2023/10/12 18:37:33;;;;;;;15.63;4.13;;;;;;;;;;5001684;28;20192;-77
2023/10/12 18:40:41;;;;;;;12.20;4.63;;;;;;;;;;5001144;28;20181;-76
2023/10/12 18:43:48;;;;;;;8.13;4.00;;;;;;;;;;5013164;28;20185;-76
2023/10/12 18:46:52;;;;;;;10.67;3.67;;;;;;;;;;5012706;28;20522;-76
2023/10/12 18:49:56;;;;;;;13.27;4.37;;;;;;;;;;4990794;28;20186;-76
2023/10/12 18:53:00;;;;;;;7.60;4.00;;;;;;;;;;5017019;28;20233;-75
2023/10/12 18:56:06;;;;;;;9.57;4.60;;;;;;;;;;5017076;28;20548;-76
2023/10/12 18:59:10;;;;;;;10.80;4.33;;;;;;;;;;5017056;28;20221;-76
2023/10/12 19:02:15;;;;;;;12.03;4.40;;;;;;;;;;5004000;28;20233;-76
2023/10/12 19:05:19;;;;;;;12.47;4.43;;;;;;;;;;5017109;28;20573;-76
2023/10/12 19:08:23;;;;;;;7.37;4.03;;;;;;;;;;5016871;28;20218;-76
2023/10/12 19:11:27;;;;;;;11.10;4.67;;;;;;;;;;5016483;28;20221;-76
2023/10/12 19:14:32;;;;;;;11.23;4.37;;;;;;;;;;5005303;28;20196;-76
2023/10/12 19:17:38;;;;;;;11.03;4.50;;;;;;;;;;5017708;28;20196;-76
2023/10/12 19:20:42;;;;;;;8.53;4.03;;;;;;;;;;4996247;28;20185;-75
2023/10/12 19:23:46;;;;;;;11.63;4.10;;;;;;;;;;4996292;28;20206;-75
2023/10/12 19:26:51;;;;;;;7.20;3.70;;;;;;;;;;4996957;28;20672;-76
2023/10/12 19:29:55;;;;;;;6.93;3.77;;;;;;;;;;4996774;28;20182;-75
2023/10/12 19:33:00;;;;;;;6.77;3.60;;;;;;;;;;4996466;28;20554;-75
2023/10/12 19:36:10;;;;;;;9.43;4.10;;;;;;;;;;4995999;28;20190;-75
2023/10/12 19:39:16;;;;;;;8.67;4.30;;;;;;;;;;4996792;28;20210;-75
2023/10/12 19:42:24;;;;;;;8.57;3.90;;;;;;;;;;4995897;28;20218;-75
2023/10/12 19:45:34;;;;;;;10.90;3.70;;;;;;;;;;4996350;28;20186;-75
2023/10/12 19:48:40;;;;;;;8.67;4.00;;;;;;;;;;4995779;28;20178;-75
2023/10/12 19:51:44;;;;;;;9.53;3.90;;;;;;;;;;4996635;28;20566;-75